sensor_id;sensor_type;location;lat;lon;timestamp;temperature;humidity
3298;DHT22;1661;53.572;10.174;2023-02-15T00:00:17;6.10;92.30
3298;DHT22;1661;53.572;10.174;2023-02-15T00:02:44;6.10;92.40
3298;DHT22;1661;53.572;10.174;2023-02-15T00:05:10;6.00;92.50
3298;DHT22;1661;53.572;10.174;2023-02-15T00:07:37;6.10;92.50
3298;DHT22;1661;53.572;10.174;2023-02-15T00:10:05;6.20;92.50
3298;DHT22;1661;53.572;10.174;2023-02-15T00:12:32;6.10;92.30
3298;DHT22;1661;53.572;10.174;2023-02-15T00:15:00;6.10;92.30
3298;DHT22;1661;53.572;10.174;2023-02-15T00:17:28;6.10;92.40
3298;DHT22;1661;53.572;10.174;2023-02-15T00:19:55;6.20;92.40
3298;DHT22;1661;53.572;10.174;2023-02-15T00:22:21;6.20;92.30
3298;DHT22;1661;53.572;10.174;2023-02-15T00:24:48;6.10;92.40
3298;DHT22;1661;53.572;10.174;2023-02-15T00:27:15;6.10;92.40
3298;DHT22;1661;53.572;10.174;2023-02-15T00:29:42;6.10;92.50
3298;DHT22;1661;53.572;10.174;2023-02-15T00:32:10;6.10;92.50
3298;DHT22;1661;53.572;10.174;2023-02-15T00:34:37;6.10;92.50
3298;DHT22;1661;53.572;10.174;2023-02-15T00:37:03;6.10;92.60
3298;DHT22;1661;53.572;10.174;2023-02-15T00:39:30;6.10;92.60
3298;DHT22;1661;53.572;10.174;2023-02-15T00:41:57;6.10;92.80
3298;DHT22;1661;53.572;10.174;2023-02-15T00:44:24;6.10;92.90
3298;DHT22;1661;53.572;10.174;2023-02-15T00:46:51;6.10;93.00
3298;DHT22;1661;53.572;10.174;2023-02-15T00:49:22;6.10;93.00
3298;DHT22;1661;53.572;10.174;2023-02-15T00:51:48;6.20;92.90
3298;DHT22;1661;53.572;10.174;2023-02-15T00:54:15;6.20;92.70
3298;DHT22;1661;53.572;10.174;2023-02-15T00:56:42;6.20;92.60
3298;DHT22;1661;53.572;10.174;2023-02-15T00:59:09;6.20;92.70
3298;DHT22;1661;53.572;10.174;2023-02-15T01:01:35;6.20;92.70
3298;DHT22;1661;53.572;10.174;2023-02-15T01:04:02;6.20;92.50
3298;DHT22;1661;53.572;10.174;2023-02-15T01:06:30;6.20;92.60
3298;DHT22;1661;53.572;10.174;2023-02-15T01:08:57;6.20;92.70
3298;DHT22;1661;53.572;10.174;2023-02-15T01:11:24;6.20;92.60
3298;DHT22;1661;53.572;10.174;2023-02-15T01:13:52;6.20;92.70
3298;DHT22;1661;53.572;10.174;2023-02-15T01:16:20;6.20;92.80
3298;DHT22;1661;53.572;10.174;2023-02-15T01:18:47;6.20;92.70
3298;DHT22;1661;53.572;10.174;2023-02-15T01:21:16;6.20;92.60
3298;DHT22;1661;53.572;10.174;2023-02-15T01:23:46;6.20;92.70
3298;DHT22;1661;53.572;10.174;2023-02-15T01:26:13;6.20;92.70
3298;DHT22;1661;53.572;10.174;2023-02-15T01:28:40;6.20;92.70
3298;DHT22;1661;53.572;10.174;2023-02-15T01:31:08;6.30;92.60
3298;DHT22;1661;53.572;10.174;2023-02-15T01:33:35;6.30;92.50
3298;DHT22;1661;53.572;10.174;2023-02-15T01:36:03;6.30;92.40
3298;DHT22;1661;53.572;10.174;2023-02-15T01:38:30;6.20;92.30
3298;DHT22;1661;53.572;10.174;2023-02-15T01:40:58;6.20;92.30
3298;DHT22;1661;53.572;10.174;2023-02-15T01:43:47;6.20;92.20
3298;DHT22;1661;53.572;10.174;2023-02-15T01:46:16;6.20;92.20
3298;DHT22;1661;53.572;10.174;2023-02-15T01:48:46;6.20;92.30
3298;DHT22;1661;53.572;10.174;2023-02-15T01:51:15;6.10;92.20
3298;DHT22;1661;53.572;10.174;2023-02-15T01:53:49;6.10;92.40
3298;DHT22;1661;53.572;10.174;2023-02-15T01:56:21;6.20;92.40
3298;DHT22;1661;53.572;10.174;2023-02-15T01:58:49;6.20;92.20
3298;DHT22;1661;53.572;10.174;2023-02-15T02:01:18;6.20;92.30
3298;DHT22;1661;53.572;10.174;2023-02-15T02:03:49;6.10;92.10
3298;DHT22;1661;53.572;10.174;2023-02-15T02:06:20;6.10;92.20
3298;DHT22;1661;53.572;10.174;2023-02-15T02:08:48;6.10;92.20
3298;DHT22;1661;53.572;10.174;2023-02-15T02:11:15;6.20;92.20
3298;DHT22;1661;53.572;10.174;2023-02-15T02:13:44;6.20;92.00
3298;DHT22;1661;53.572;10.174;2023-02-15T02:16:16;6.20;91.90
3298;DHT22;1661;53.572;10.174;2023-02-15T02:18:59;6.10;91.90
3298;DHT22;1661;53.572;10.174;2023-02-15T02:22:03;6.10;92.00
3298;DHT22;1661;53.572;10.174;2023-02-15T02:27:40;6.10;92.00
3298;DHT22;1661;53.572;10.174;2023-02-15T02:30:39;6.10;91.80
3298;DHT22;1661;53.572;10.174;2023-02-15T02:33:41;5.90;91.90
3298;DHT22;1661;53.572;10.174;2023-02-15T02:36:17;5.90;92.10
3298;DHT22;1661;53.572;10.174;2023-02-15T02:38:57;5.80;92.20
3298;DHT22;1661;53.572;10.174;2023-02-15T02:41:32;5.80;92.40
3298;DHT22;1661;53.572;10.174;2023-02-15T02:44:09;5.80;92.50
3298;DHT22;1661;53.572;10.174;2023-02-15T02:46:47;5.80;92.40
3298;DHT22;1661;53.572;10.174;2023-02-15T02:49:16;5.70;92.40
3298;DHT22;1661;53.572;10.174;2023-02-15T02:51:43;5.70;92.40
3298;DHT22;1661;53.572;10.174;2023-02-15T02:54:10;5.60;92.50
3298;DHT22;1661;53.572;10.174;2023-02-15T02:56:39;5.60;92.70
3298;DHT22;1661;53.572;10.174;2023-02-15T02:59:11;5.70;92.70
3298;DHT22;1661;53.572;10.174;2023-02-15T03:01:41;5.70;92.60
3298;DHT22;1661;53.572;10.174;2023-02-15T03:04:13;5.60;92.50
3298;DHT22;1661;53.572;10.174;2023-02-15T03:06:47;5.60;92.50
3298;DHT22;1661;53.572;10.174;2023-02-15T03:09:21;5.60;92.60
3298;DHT22;1661;53.572;10.174;2023-02-15T03:11:50;5.60;92.60
3298;DHT22;1661;53.572;10.174;2023-02-15T03:14:18;5.60;92.60
3298;DHT22;1661;53.572;10.174;2023-02-15T03:16:47;5.60;92.50
3298;DHT22;1661;53.572;10.174;2023-02-15T03:19:17;5.60;92.30
3298;DHT22;1661;53.572;10.174;2023-02-15T03:21:48;5.60;92.30
3298;DHT22;1661;53.572;10.174;2023-02-15T03:24:26;5.50;92.40
3298;DHT22;1661;53.572;10.174;2023-02-15T03:26:56;5.50;92.40
3298;DHT22;1661;53.572;10.174;2023-02-15T03:29:27;5.50;92.40
3298;DHT22;1661;53.572;10.174;2023-02-15T03:31:57;5.50;92.40
3298;DHT22;1661;53.572;10.174;2023-02-15T03:34:26;5.50;92.30
3298;DHT22;1661;53.572;10.174;2023-02-15T03:36:58;5.50;92.20
3298;DHT22;1661;53.572;10.174;2023-02-15T03:39:32;5.50;92.20
3298;DHT22;1661;53.572;10.174;2023-02-15T03:42:07;5.50;92.20
3298;DHT22;1661;53.572;10.174;2023-02-15T03:44:44;5.60;92.10
3298;DHT22;1661;53.572;10.174;2023-02-15T03:47:14;5.60;91.90
3298;DHT22;1661;53.572;10.174;2023-02-15T03:49:45;5.70;91.70
3298;DHT22;1661;53.572;10.174;2023-02-15T03:52:14;5.70;91.50
3298;DHT22;1661;53.572;10.174;2023-02-15T03:54:41;5.70;91.20
3298;DHT22;1661;53.572;10.174;2023-02-15T03:57:11;5.70;91.10
3298;DHT22;1661;53.572;10.174;2023-02-15T03:59:56;5.60;91.10
3298;DHT22;1661;53.572;10.174;2023-02-15T04:02:58;5.70;90.90
3298;DHT22;1661;53.572;10.174;2023-02-15T04:05:28;5.60;90.90
3298;DHT22;1661;53.572;10.174;2023-02-15T04:07:56;5.60;90.90
3298;DHT22;1661;53.572;10.174;2023-02-15T04:10:23;5.60;90.80
3298;DHT22;1661;53.572;10.174;2023-02-15T04:13:07;5.60;90.80
3298;DHT22;1661;53.572;10.174;2023-02-15T04:15:34;5.60;90.50
3298;DHT22;1661;53.572;10.174;2023-02-15T04:18:18;5.50;90.50
3298;DHT22;1661;53.572;10.174;2023-02-15T04:20:45;5.50;90.50
3298;DHT22;1661;53.572;10.174;2023-02-15T04:23:31;5.50;90.60
3298;DHT22;1661;53.572;10.174;2023-02-15T04:26:15;5.40;90.60
3298;DHT22;1661;53.572;10.174;2023-02-15T04:28:42;5.40;90.60
3298;DHT22;1661;53.572;10.174;2023-02-15T04:31:09;5.30;90.70
3298;DHT22;1661;53.572;10.174;2023-02-15T04:33:36;5.30;90.90
3298;DHT22;1661;53.572;10.174;2023-02-15T04:36:03;5.20;91.00
3298;DHT22;1661;53.572;10.174;2023-02-15T04:38:31;5.20;91.10
3298;DHT22;1661;53.572;10.174;2023-02-15T04:40:58;5.20;91.00
3298;DHT22;1661;53.572;10.174;2023-02-15T04:43:25;5.10;91.00
3298;DHT22;1661;53.572;10.174;2023-02-15T04:45:52;5.10;91.10
3298;DHT22;1661;53.572;10.174;2023-02-15T04:48:18;5.10;91.10
3298;DHT22;1661;53.572;10.174;2023-02-15T04:50:45;5.10;91.10
3298;DHT22;1661;53.572;10.174;2023-02-15T04:53:12;5.10;91.10
3298;DHT22;1661;53.572;10.174;2023-02-15T04:55:40;5.10;91.10
3298;DHT22;1661;53.572;10.174;2023-02-15T04:58:07;5.10;91.00
3298;DHT22;1661;53.572;10.174;2023-02-15T05:00:34;5.10;91.00
3298;DHT22;1661;53.572;10.174;2023-02-15T05:03:01;5.10;90.90
3298;DHT22;1661;53.572;10.174;2023-02-15T05:05:28;5.10;90.80
3298;DHT22;1661;53.572;10.174;2023-02-15T05:07:54;5.10;90.80
3298;DHT22;1661;53.572;10.174;2023-02-15T05:10:21;5.10;90.90
3298;DHT22;1661;53.572;10.174;2023-02-15T05:12:49;5.00;90.80
3298;DHT22;1661;53.572;10.174;2023-02-15T05:15:16;5.00;90.80
3298;DHT22;1661;53.572;10.174;2023-02-15T05:17:43;5.00;90.70
3298;DHT22;1661;53.572;10.174;2023-02-15T05:20:10;4.90;90.60
3298;DHT22;1661;53.572;10.174;2023-02-15T05:22:37;4.90;90.50
3298;DHT22;1661;53.572;10.174;2023-02-15T05:25:04;4.80;90.20
3298;DHT22;1661;53.572;10.174;2023-02-15T05:27:49;4.80;90.20
3298;DHT22;1661;53.572;10.174;2023-02-15T05:30:34;4.80;90.50
3298;DHT22;1661;53.572;10.174;2023-02-15T05:33:01;4.80;90.20
3298;DHT22;1661;53.572;10.174;2023-02-15T05:35:28;4.70;90.20
3298;DHT22;1661;53.572;10.174;2023-02-15T05:37:54;4.70;90.20
3298;DHT22;1661;53.572;10.174;2023-02-15T05:40:21;4.70;90.30
3298;DHT22;1661;53.572;10.174;2023-02-15T05:42:49;4.60;90.20
3298;DHT22;1661;53.572;10.174;2023-02-15T05:45:16;4.50;90.40
3298;DHT22;1661;53.572;10.174;2023-02-15T05:47:43;4.50;90.60
3298;DHT22;1661;53.572;10.174;2023-02-15T05:50:10;4.50;90.50
3298;DHT22;1661;53.572;10.174;2023-02-15T05:52:37;4.50;90.50
3298;DHT22;1661;53.572;10.174;2023-02-15T05:55:04;4.50;90.60
3298;DHT22;1661;53.572;10.174;2023-02-15T05:57:32;4.40;90.50
3298;DHT22;1661;53.572;10.174;2023-02-15T06:00:00;4.40;90.60
3298;DHT22;1661;53.572;10.174;2023-02-15T06:02:29;4.30;90.60
3298;DHT22;1661;53.572;10.174;2023-02-15T06:04:56;4.20;91.10
3298;DHT22;1661;53.572;10.174;2023-02-15T06:07:23;4.10;91.50
3298;DHT22;1661;53.572;10.174;2023-02-15T06:09:49;4.00;91.80
3298;DHT22;1661;53.572;10.174;2023-02-15T06:12:16;4.10;92.00
3298;DHT22;1661;53.572;10.174;2023-02-15T06:14:43;4.00;92.00
3298;DHT22;1661;53.572;10.174;2023-02-15T06:17:11;4.10;92.10
3298;DHT22;1661;53.572;10.174;2023-02-15T06:19:38;4.10;92.00
3298;DHT22;1661;53.572;10.174;2023-02-15T06:22:05;4.20;91.90
3298;DHT22;1661;53.572;10.174;2023-02-15T06:24:32;4.10;91.60
3298;DHT22;1661;53.572;10.174;2023-02-15T06:26:59;4.20;91.60
3298;DHT22;1661;53.572;10.174;2023-02-15T06:29:25;4.20;91.50
3298;DHT22;1661;53.572;10.174;2023-02-15T06:31:52;4.20;91.30
3298;DHT22;1661;53.572;10.174;2023-02-15T06:34:20;4.30;91.20
3298;DHT22;1661;53.572;10.174;2023-02-15T06:36:47;4.30;90.80
3298;DHT22;1661;53.572;10.174;2023-02-15T06:39:14;4.30;90.60
3298;DHT22;1661;53.572;10.174;2023-02-15T06:41:41;4.40;90.60
3298;DHT22;1661;53.572;10.174;2023-02-15T06:44:08;4.40;90.10
3298;DHT22;1661;53.572;10.174;2023-02-15T06:46:35;4.40;89.90
3298;DHT22;1661;53.572;10.174;2023-02-15T06:49:02;4.50;89.80
3298;DHT22;1661;53.572;10.174;2023-02-15T06:51:30;4.50;89.80
3298;DHT22;1661;53.572;10.174;2023-02-15T06:53:56;4.50;89.80
3298;DHT22;1661;53.572;10.174;2023-02-15T06:56:23;4.50;89.60
3298;DHT22;1661;53.572;10.174;2023-02-15T06:58:50;4.50;89.50
3298;DHT22;1661;53.572;10.174;2023-02-15T07:01:18;4.50;89.60
3298;DHT22;1661;53.572;10.174;2023-02-15T07:03:45;4.50;89.50
3298;DHT22;1661;53.572;10.174;2023-02-15T07:06:12;4.60;89.60
3298;DHT22;1661;53.572;10.174;2023-02-15T07:08:40;4.50;89.30
3298;DHT22;1661;53.572;10.174;2023-02-15T07:11:07;4.50;89.20
3298;DHT22;1661;53.572;10.174;2023-02-15T07:13:52;4.40;89.20
3298;DHT22;1661;53.572;10.174;2023-02-15T07:16:18;4.40;89.40
3298;DHT22;1661;53.572;10.174;2023-02-15T07:18:45;4.40;89.50
3298;DHT22;1661;53.572;10.174;2023-02-15T07:21:12;4.40;89.60
3298;DHT22;1661;53.572;10.174;2023-02-15T07:23:40;4.30;89.60
3298;DHT22;1661;53.572;10.174;2023-02-15T07:26:08;4.30;89.60
3298;DHT22;1661;53.572;10.174;2023-02-15T07:28:35;4.20;89.90
3298;DHT22;1661;53.572;10.174;2023-02-15T07:31:02;4.20;89.70
3298;DHT22;1661;53.572;10.174;2023-02-15T07:33:30;4.20;90.10
3298;DHT22;1661;53.572;10.174;2023-02-15T07:35:58;4.10;90.00
3298;DHT22;1661;53.572;10.174;2023-02-15T07:38:27;4.10;90.10
3298;DHT22;1661;53.572;10.174;2023-02-15T07:40:59;4.10;90.10
3298;DHT22;1661;53.572;10.174;2023-02-15T07:43:26;4.10;90.20
3298;DHT22;1661;53.572;10.174;2023-02-15T07:45:52;4.10;90.40
3298;DHT22;1661;53.572;10.174;2023-02-15T07:48:19;4.10;90.60
3298;DHT22;1661;53.572;10.174;2023-02-15T07:50:46;4.20;90.50
3298;DHT22;1661;53.572;10.174;2023-02-15T07:53:13;4.20;90.50
3298;DHT22;1661;53.572;10.174;2023-02-15T07:55:39;4.20;90.30
3298;DHT22;1661;53.572;10.174;2023-02-15T07:58:08;4.20;90.40
3298;DHT22;1661;53.572;10.174;2023-02-15T08:00:34;4.10;90.60
3298;DHT22;1661;53.572;10.174;2023-02-15T08:03:23;4.10;90.70
3298;DHT22;1661;53.572;10.174;2023-02-15T08:05:56;4.20;90.70
3298;DHT22;1661;53.572;10.174;2023-02-15T08:08:23;4.30;90.90
3298;DHT22;1661;53.572;10.174;2023-02-15T08:11:00;4.30;90.70
3298;DHT22;1661;53.572;10.174;2023-02-15T08:13:47;4.40;90.20
3298;DHT22;1661;53.572;10.174;2023-02-15T08:16:22;4.40;90.00
3298;DHT22;1661;53.572;10.174;2023-02-15T08:18:49;4.40;89.90
3298;DHT22;1661;53.572;10.174;2023-02-15T08:21:16;4.40;89.80
3298;DHT22;1661;53.572;10.174;2023-02-15T08:23:42;4.40;89.80
3298;DHT22;1661;53.572;10.174;2023-02-15T08:26:09;4.40;89.60
3298;DHT22;1661;53.572;10.174;2023-02-15T08:28:36;4.40;89.50
3298;DHT22;1661;53.572;10.174;2023-02-15T08:31:08;4.40;89.50
3298;DHT22;1661;53.572;10.174;2023-02-15T08:33:36;4.50;89.50
3298;DHT22;1661;53.572;10.174;2023-02-15T08:36:04;4.60;89.50
3298;DHT22;1661;53.572;10.174;2023-02-15T08:38:31;4.50;89.10
3298;DHT22;1661;53.572;10.174;2023-02-15T08:41:09;4.50;89.10
3298;DHT22;1661;53.572;10.174;2023-02-15T08:43:36;4.50;89.20
3298;DHT22;1661;53.572;10.174;2023-02-15T08:46:03;4.50;88.80
3298;DHT22;1661;53.572;10.174;2023-02-15T08:48:31;4.60;88.60
3298;DHT22;1661;53.572;10.174;2023-02-15T08:50:58;4.60;88.50
3298;DHT22;1661;53.572;10.174;2023-02-15T08:53:25;4.60;88.50
3298;DHT22;1661;53.572;10.174;2023-02-15T08:55:55;4.70;88.40
3298;DHT22;1661;53.572;10.174;2023-02-15T08:58:23;4.70;88.30
3298;DHT22;1661;53.572;10.174;2023-02-15T09:00:50;4.60;88.10
3298;DHT22;1661;53.572;10.174;2023-02-15T09:03:17;4.50;88.10
3298;DHT22;1661;53.572;10.174;2023-02-15T09:05:45;4.50;87.70
3298;DHT22;1661;53.572;10.174;2023-02-15T09:08:12;4.40;87.70
3298;DHT22;1661;53.572;10.174;2023-02-15T09:10:39;4.30;88.00
3298;DHT22;1661;53.572;10.174;2023-02-15T09:13:05;4.20;88.30
3298;DHT22;1661;53.572;10.174;2023-02-15T09:15:32;4.10;88.40
3298;DHT22;1661;53.572;10.174;2023-02-15T09:17:59;4.00;88.70
3298;DHT22;1661;53.572;10.174;2023-02-15T09:20:31;4.00;89.10
3298;DHT22;1661;53.572;10.174;2023-02-15T09:22:59;4.00;89.40
3298;DHT22;1661;53.572;10.174;2023-02-15T09:25:27;4.00;89.40
3298;DHT22;1661;53.572;10.174;2023-02-15T09:27:54;4.10;89.80
3298;DHT22;1661;53.572;10.174;2023-02-15T09:30:21;4.20;89.70
3298;DHT22;1661;53.572;10.174;2023-02-15T09:32:48;4.20;89.70
3298;DHT22;1661;53.572;10.174;2023-02-15T09:35:15;4.30;89.60
3298;DHT22;1661;53.572;10.174;2023-02-15T09:37:42;4.30;89.50
3298;DHT22;1661;53.572;10.174;2023-02-15T09:40:12;4.30;89.40
3298;DHT22;1661;53.572;10.174;2023-02-15T09:46:03;4.30;90.20
3298;DHT22;1661;53.572;10.174;2023-02-15T09:48:38;4.20;90.10
3298;DHT22;1661;53.572;10.174;2023-02-15T09:51:33;4.30;90.30
3298;DHT22;1661;53.572;10.174;2023-02-15T09:54:13;4.30;90.40
3298;DHT22;1661;53.572;10.174;2023-02-15T09:56:48;4.20;90.40
3298;DHT22;1661;53.572;10.174;2023-02-15T09:59:23;4.20;90.70
3298;DHT22;1661;53.572;10.174;2023-02-15T10:02:00;4.30;91.00
3298;DHT22;1661;53.572;10.174;2023-02-15T10:04:43;4.50;91.00
3298;DHT22;1661;53.572;10.174;2023-02-15T10:07:22;4.70;90.80
3298;DHT22;1661;53.572;10.174;2023-02-15T10:10:03;4.80;90.50
3298;DHT22;1661;53.572;10.174;2023-02-15T10:12:49;4.90;90.20
3298;DHT22;1661;53.572;10.174;2023-02-15T10:15:42;5.00;90.00
3298;DHT22;1661;53.572;10.174;2023-02-15T10:18:32;5.10;89.70
3298;DHT22;1661;53.572;10.174;2023-02-15T10:21:06;5.20;89.30
3298;DHT22;1661;53.572;10.174;2023-02-15T10:26:34;5.20;88.80
3298;DHT22;1661;53.572;10.174;2023-02-15T10:29:09;5.30;88.40
3298;DHT22;1661;53.572;10.174;2023-02-15T10:31:48;5.30;88.20
3298;DHT22;1661;53.572;10.174;2023-02-15T10:34:17;5.20;88.10
3298;DHT22;1661;53.572;10.174;2023-02-15T10:36:58;5.20;88.10
3298;DHT22;1661;53.572;10.174;2023-02-15T10:39:33;5.10;88.40
3298;DHT22;1661;53.572;10.174;2023-02-15T10:42:11;5.20;88.70
3298;DHT22;1661;53.572;10.174;2023-02-15T10:44:54;5.20;88.60
3298;DHT22;1661;53.572;10.174;2023-02-15T10:47:41;5.20;88.70
3298;DHT22;1661;53.572;10.174;2023-02-15T10:50:36;5.20;88.60
3298;DHT22;1661;53.572;10.174;2023-02-15T10:56:06;5.20;88.60
3298;DHT22;1661;53.572;10.174;2023-02-15T10:58:53;5.20;88.80
3298;DHT22;1661;53.572;10.174;2023-02-15T11:01:27;5.20;89.10
3298;DHT22;1661;53.572;10.174;2023-02-15T11:04:24;5.40;89.10
3298;DHT22;1661;53.572;10.174;2023-02-15T11:06:59;5.50;89.30
3298;DHT22;1661;53.572;10.174;2023-02-15T11:09:35;5.60;88.90
3298;DHT22;1661;53.572;10.174;2023-02-15T11:12:07;5.70;88.60
3298;DHT22;1661;53.572;10.174;2023-02-15T11:14:39;5.80;88.50
3298;DHT22;1661;53.572;10.174;2023-02-15T11:17:11;5.90;88.10
3298;DHT22;1661;53.572;10.174;2023-02-15T11:19:43;6.00;88.00
3298;DHT22;1661;53.572;10.174;2023-02-15T11:22:11;5.90;87.80
3298;DHT22;1661;53.572;10.174;2023-02-15T11:24:42;5.90;87.60
3298;DHT22;1661;53.572;10.174;2023-02-15T11:27:19;5.80;87.80
3298;DHT22;1661;53.572;10.174;2023-02-15T11:29:52;5.90;88.00
3298;DHT22;1661;53.572;10.174;2023-02-15T11:32:25;6.00;87.90
3298;DHT22;1661;53.572;10.174;2023-02-15T11:34:56;6.10;87.90
3298;DHT22;1661;53.572;10.174;2023-02-15T11:37:28;6.10;87.70
3298;DHT22;1661;53.572;10.174;2023-02-15T11:39:56;6.20;87.40
3298;DHT22;1661;53.572;10.174;2023-02-15T11:42:27;6.30;87.40
3298;DHT22;1661;53.572;10.174;2023-02-15T11:45:00;6.40;87.50
3298;DHT22;1661;53.572;10.174;2023-02-15T11:47:30;6.50;87.40
3298;DHT22;1661;53.572;10.174;2023-02-15T11:49:57;6.60;86.80
3298;DHT22;1661;53.572;10.174;2023-02-15T11:52:23;6.60;86.30
3298;DHT22;1661;53.572;10.174;2023-02-15T11:54:51;6.70;86.30
3298;DHT22;1661;53.572;10.174;2023-02-15T11:57:23;6.80;85.90
3298;DHT22;1661;53.572;10.174;2023-02-15T11:59:57;6.80;85.90
3298;DHT22;1661;53.572;10.174;2023-02-15T12:02:26;6.80;85.80
3298;DHT22;1661;53.572;10.174;2023-02-15T12:04:59;6.80;85.60
3298;DHT22;1661;53.572;10.174;2023-02-15T12:07:30;6.90;85.60
3298;DHT22;1661;53.572;10.174;2023-02-15T12:10:03;6.90;85.20
3298;DHT22;1661;53.572;10.174;2023-02-15T12:12:34;7.00;85.20
3298;DHT22;1661;53.572;10.174;2023-02-15T12:15:04;7.00;85.30
3298;DHT22;1661;53.572;10.174;2023-02-15T12:17:34;7.10;85.20
3298;DHT22;1661;53.572;10.174;2023-02-15T12:20:07;7.20;85.10
3298;DHT22;1661;53.572;10.174;2023-02-15T12:22:50;7.20;84.90
3298;DHT22;1661;53.572;10.174;2023-02-15T12:25:21;7.10;84.50
3298;DHT22;1661;53.572;10.174;2023-02-15T12:27:49;7.10;84.00
3298;DHT22;1661;53.572;10.174;2023-02-15T12:30:20;7.10;84.00
3298;DHT22;1661;53.572;10.174;2023-02-15T12:32:52;7.10;84.10
3298;DHT22;1661;53.572;10.174;2023-02-15T12:35:27;7.10;84.10
3298;DHT22;1661;53.572;10.174;2023-02-15T12:37:56;7.20;84.30
3298;DHT22;1661;53.572;10.174;2023-02-15T12:40:30;7.20;84.10
3298;DHT22;1661;53.572;10.174;2023-02-15T12:42:57;7.30;84.30
3298;DHT22;1661;53.572;10.174;2023-02-15T12:45:26;7.40;84.30
3298;DHT22;1661;53.572;10.174;2023-02-15T12:48:13;7.40;84.20
3298;DHT22;1661;53.572;10.174;2023-02-15T12:50:43;7.50;84.20
3298;DHT22;1661;53.572;10.174;2023-02-15T12:53:15;7.50;83.70
3298;DHT22;1661;53.572;10.174;2023-02-15T12:55:53;7.50;83.70
3298;DHT22;1661;53.572;10.174;2023-02-15T12:58:22;7.60;84.20
3298;DHT22;1661;53.572;10.174;2023-02-15T13:01:04;7.60;84.00
3298;DHT22;1661;53.572;10.174;2023-02-15T13:03:38;7.70;84.10
3298;DHT22;1661;53.572;10.174;2023-02-15T13:06:06;7.70;84.00
3298;DHT22;1661;53.572;10.174;2023-02-15T13:08:37;7.80;83.90
3298;DHT22;1661;53.572;10.174;2023-02-15T13:11:07;7.90;83.60
3298;DHT22;1661;53.572;10.174;2023-02-15T13:13:38;8.00;83.30
3298;DHT22;1661;53.572;10.174;2023-02-15T13:16:14;8.10;83.50
3298;DHT22;1661;53.572;10.174;2023-02-15T13:18:44;8.20;83.40
3298;DHT22;1661;53.572;10.174;2023-02-15T13:21:15;8.30;83.40
3298;DHT22;1661;53.572;10.174;2023-02-15T13:23:46;8.30;82.90
3298;DHT22;1661;53.572;10.174;2023-02-15T13:26:18;8.40;82.50
3298;DHT22;1661;53.572;10.174;2023-02-15T13:28:47;8.40;82.10
3298;DHT22;1661;53.572;10.174;2023-02-15T13:31:17;8.40;81.70
3298;DHT22;1661;53.572;10.174;2023-02-15T13:33:47;8.40;81.90
3298;DHT22;1661;53.572;10.174;2023-02-15T13:36:21;8.40;82.10
3298;DHT22;1661;53.572;10.174;2023-02-15T13:38:58;8.40;82.40
3298;DHT22;1661;53.572;10.174;2023-02-15T13:41:33;8.40;82.60
3298;DHT22;1661;53.572;10.174;2023-02-15T13:44:09;8.50;82.90
3298;DHT22;1661;53.572;10.174;2023-02-15T13:46:48;8.60;82.80
3298;DHT22;1661;53.572;10.174;2023-02-15T13:49:32;8.70;82.70
3298;DHT22;1661;53.572;10.174;2023-02-15T13:52:11;8.80;82.10
3298;DHT22;1661;53.572;10.174;2023-02-15T13:55:01;8.90;81.80
3298;DHT22;1661;53.572;10.174;2023-02-15T13:57:44;9.00;81.40
3298;DHT22;1661;53.572;10.174;2023-02-15T14:00:20;9.10;81.10
3298;DHT22;1661;53.572;10.174;2023-02-15T14:03:01;9.20;80.80
3298;DHT22;1661;53.572;10.174;2023-02-15T14:05:45;9.30;80.20
3298;DHT22;1661;53.572;10.174;2023-02-15T14:08:31;9.40;80.00
3298;DHT22;1661;53.572;10.174;2023-02-15T14:11:06;9.50;79.70
3298;DHT22;1661;53.572;10.174;2023-02-15T14:13:49;9.60;79.90
3298;DHT22;1661;53.572;10.174;2023-02-15T14:16:27;9.70;79.50
3298;DHT22;1661;53.572;10.174;2023-02-15T14:19:05;9.70;79.10
3298;DHT22;1661;53.572;10.174;2023-02-15T14:21:42;9.80;78.70
3298;DHT22;1661;53.572;10.174;2023-02-15T14:24:22;9.80;78.80
3298;DHT22;1661;53.572;10.174;2023-02-15T14:26:56;9.90;78.60
3298;DHT22;1661;53.572;10.174;2023-02-15T14:29:31;10.00;78.20
3298;DHT22;1661;53.572;10.174;2023-02-15T14:32:08;10.00;78.20
3298;DHT22;1661;53.572;10.174;2023-02-15T14:34:43;10.10;77.70
3298;DHT22;1661;53.572;10.174;2023-02-15T14:37:12;10.10;77.30
3298;DHT22;1661;53.572;10.174;2023-02-15T14:39:47;10.10;77.60
3298;DHT22;1661;53.572;10.174;2023-02-15T14:42:39;10.20;77.50
3298;DHT22;1661;53.572;10.174;2023-02-15T14:45:17;10.30;76.70
3298;DHT22;1661;53.572;10.174;2023-02-15T14:47:51;10.40;76.50
3298;DHT22;1661;53.572;10.174;2023-02-15T14:50:46;10.40;76.30
3298;DHT22;1661;53.572;10.174;2023-02-15T14:53:35;10.40;76.20
3298;DHT22;1661;53.572;10.174;2023-02-15T14:56:13;10.30;76.50
3298;DHT22;1661;53.572;10.174;2023-02-15T14:58:59;10.30;76.40
3298;DHT22;1661;53.572;10.174;2023-02-15T15:01:27;10.30;76.40
3298;DHT22;1661;53.572;10.174;2023-02-15T15:03:57;10.20;76.50
3298;DHT22;1661;53.572;10.174;2023-02-15T15:06:26;10.20;76.90
3298;DHT22;1661;53.572;10.174;2023-02-15T15:08:58;10.20;76.90
3298;DHT22;1661;53.572;10.174;2023-02-15T15:11:41;10.20;76.90
3298;DHT22;1661;53.572;10.174;2023-02-15T15:14:09;10.20;77.20
3298;DHT22;1661;53.572;10.174;2023-02-15T15:17:00;10.20;77.10
3298;DHT22;1661;53.572;10.174;2023-02-15T15:22:35;10.30;76.90
3298;DHT22;1661;53.572;10.174;2023-02-15T15:25:03;10.30;76.70
3298;DHT22;1661;53.572;10.174;2023-02-15T15:27:45;10.20;76.90
3298;DHT22;1661;53.572;10.174;2023-02-15T15:30:50;10.20;76.90
3298;DHT22;1661;53.572;10.174;2023-02-15T15:36:40;10.10;76.80
3298;DHT22;1661;53.572;10.174;2023-02-15T15:39:27;10.00;77.20
3298;DHT22;1661;53.572;10.174;2023-02-15T15:42:07;10.00;77.40
3298;DHT22;1661;53.572;10.174;2023-02-15T15:47:57;9.90;77.90
3298;DHT22;1661;53.572;10.174;2023-02-15T15:50:25;9.80;78.10
3298;DHT22;1661;53.572;10.174;2023-02-15T15:52:55;9.70;78.20
3298;DHT22;1661;53.572;10.174;2023-02-15T15:55:26;9.70;78.40
3298;DHT22;1661;53.572;10.174;2023-02-15T15:57:55;9.60;78.60
3298;DHT22;1661;53.572;10.174;2023-02-15T16:00:33;9.60;78.80
3298;DHT22;1661;53.572;10.174;2023-02-15T16:03:01;9.50;79.00
3298;DHT22;1661;53.572;10.174;2023-02-15T16:05:35;9.50;78.90
3298;DHT22;1661;53.572;10.174;2023-02-15T16:08:03;9.40;79.10
3298;DHT22;1661;53.572;10.174;2023-02-15T16:10:31;9.30;79.30
3298;DHT22;1661;53.572;10.174;2023-02-15T16:12:59;9.30;79.50
3298;DHT22;1661;53.572;10.174;2023-02-15T16:15:33;9.30;79.70
3298;DHT22;1661;53.572;10.174;2023-02-15T16:18:01;9.20;79.90
3298;DHT22;1661;53.572;10.174;2023-02-15T16:20:31;9.10;79.90
3298;DHT22;1661;53.572;10.174;2023-02-15T16:23:11;9.10;80.00
3298;DHT22;1661;53.572;10.174;2023-02-15T16:25:47;9.00;80.20
3298;DHT22;1661;53.572;10.174;2023-02-15T16:28:18;9.00;80.50
3298;DHT22;1661;53.572;10.174;2023-02-15T16:31:03;8.90;80.60
3298;DHT22;1661;53.572;10.174;2023-02-15T16:33:35;8.80;80.80
3298;DHT22;1661;53.572;10.174;2023-02-15T16:36:04;8.80;80.80
3298;DHT22;1661;53.572;10.174;2023-02-15T16:39:03;8.70;80.90
3298;DHT22;1661;53.572;10.174;2023-02-15T16:41:32;8.70;81.10
3298;DHT22;1661;53.572;10.174;2023-02-15T16:44:04;8.60;81.20
3298;DHT22;1661;53.572;10.174;2023-02-15T16:46:35;8.50;81.40
3298;DHT22;1661;53.572;10.174;2023-02-15T16:49:04;8.40;81.70
3298;DHT22;1661;53.572;10.174;2023-02-15T16:51:34;8.40;81.80